createdAt,value
2023-03-29T00:00:38.298Z,6.8790
2023-03-29T00:02:41.472Z,6.7162
2023-03-29T00:03:43.047Z,6.5264
2023-03-29T00:04:43.004Z,6.4612
2023-03-29T00:05:43.039Z,6.3247
2023-03-29T00:06:43.049Z,6.2086
2023-03-29T00:07:44.268Z,6.1237
2023-03-29T00:08:44.394Z,6.0934
2023-03-29T00:09:45.642Z,6.0563
2023-03-29T00:10:45.732Z,6.0365
2023-03-29T00:11:46.953Z,6.0866
2023-03-29T00:12:48.283Z,5.9904
2023-03-29T00:13:49.526Z,6.2828
2023-03-29T00:14:50.929Z,6.4492
2023-03-29T00:15:52.111Z,6.3582
2023-03-29T00:16:53.690Z,6.4347
2023-03-29T00:17:55.082Z,6.6124
2023-03-29T00:18:55.172Z,6.5272
2023-03-29T00:19:56.427Z,6.5837
2023-03-29T00:20:57.813Z,6.6922
2023-03-29T00:21:59.037Z,6.6929
2023-03-29T00:22:59.476Z,6.7375
2023-03-29T00:24:00.674Z,6.7307
2023-03-29T00:25:00.714Z,6.7939
2023-03-29T00:26:02.031Z,6.8358
2023-03-29T00:27:03.565Z,6.8683
2023-03-29T00:28:04.854Z,6.6363
2023-03-29T00:29:06.219Z,6.5840
2023-03-29T00:30:07.429Z,6.8826
2023-03-29T00:31:08.898Z,6.7453
2023-03-29T00:32:10.207Z,7.0219
2023-03-29T00:33:10.357Z,7.0609
2023-03-29T00:34:11.622Z,7.3852
2023-03-29T00:35:11.631Z,7.5785
2023-03-29T00:36:12.907Z,7.2241
2023-03-29T00:37:12.974Z,7.0448
2023-03-29T00:38:14.181Z,7.1888
2023-03-29T00:39:15.492Z,7.1500
2023-03-29T00:40:16.803Z,7.3299
2023-03-29T00:41:17.186Z,7.0706
2023-03-29T00:42:18.386Z,7.0317
2023-03-29T00:43:18.479Z,7.2136
2023-03-29T00:44:19.791Z,7.5102
2023-03-29T00:45:21.228Z,7.5077
2023-03-29T00:46:22.659Z,7.6167
2023-03-29T00:47:22.957Z,7.4549
2023-03-29T00:48:24.369Z,7.3165
2023-03-29T00:49:24.369Z,7.4042
2023-03-29T00:50:25.571Z,7.3394
2023-03-29T00:51:26.956Z,7.2424
2023-03-29T00:52:28.231Z,7.1873
2023-03-29T00:53:29.679Z,7.0565
2023-03-29T00:54:30.959Z,7.0651
2023-03-29T00:55:32.392Z,7.2660
2023-03-29T00:56:32.488Z,7.2867
2023-03-29T00:57:34.012Z,7.4621
2023-03-29T00:58:35.246Z,7.5407
2023-03-29T00:59:36.724Z,7.5776
2023-03-29T01:00:38.048Z,7.3141
2023-03-29T01:01:38.179Z,7.3439
2023-03-29T01:02:38.456Z,7.6462
2023-03-29T01:03:40.163Z,7.7895
2023-03-29T01:04:41.444Z,7.7457
2023-03-29T01:05:42.750Z,7.7842
2023-03-29T01:06:43.864Z,7.7856
2023-03-29T01:07:44.524Z,7.7048
2023-03-29T01:08:45.745Z,7.5539
2023-03-29T01:09:45.852Z,7.6974
2023-03-29T01:10:47.126Z,7.7012
2023-03-29T01:11:48.483Z,7.6313
2023-03-29T01:12:49.715Z,7.6162
2023-03-29T01:13:51.205Z,7.5092
2023-03-29T01:14:52.484Z,7.4584
2023-03-29T01:15:53.932Z,7.4565
2023-03-29T01:16:55.338Z,7.4837
2023-03-29T01:17:55.683Z,7.3341
2023-03-29T01:18:55.798Z,7.4332
2023-03-29T01:29:06.493Z,7.6277
2023-03-29T01:30:07.869Z,7.5596
2023-03-29T01:31:09.164Z,7.4988
2023-03-29T01:32:09.230Z,7.7473
2023-03-29T01:33:10.549Z,7.7557
2023-03-29T01:34:11.913Z,7.8389
2023-03-29T01:35:11.990Z,7.7193
2023-03-29T01:36:13.538Z,7.5825
2023-03-29T01:37:14.756Z,7.4946
2023-03-29T01:38:16.127Z,7.5936
2023-03-29T01:39:17.396Z,7.4117
2023-03-29T01:40:18.736Z,7.5180
2023-03-29T01:41:20.038Z,7.8564
2023-03-29T01:42:21.529Z,7.8246
2023-03-29T01:43:23.553Z,7.6722
2023-03-29T01:44:23.385Z,7.5347
2023-03-29T01:45:24.715Z,7.5777
2023-03-29T01:46:24.817Z,7.5752
2023-03-29T01:47:24.892Z,7.6066
2023-03-29T01:48:26.106Z,7.5777
2023-03-29T01:49:27.413Z,7.5568
2023-03-29T01:50:28.627Z,7.5122
2023-03-29T01:51:29.950Z,7.3558
2023-03-29T01:52:31.202Z,7.3640
2023-03-29T01:53:31.245Z,7.3308
2023-03-29T01:54:32.612Z,7.2335
2023-03-29T02:04:41.706Z,7.0856
2023-03-29T02:05:41.763Z,7.3055
2023-03-29T02:06:42.986Z,7.3345
2023-03-29T02:07:44.301Z,7.1783
2023-03-29T02:08:45.526Z,7.2860
2023-03-29T02:09:45.589Z,7.3936
2023-03-29T02:10:45.714Z,7.3322
2023-03-29T02:11:47.163Z,7.2559
2023-03-29T02:12:48.534Z,7.1388
2023-03-29T02:13:48.471Z,7.3658
2023-03-29T02:14:48.550Z,7.4425
2023-03-29T02:15:50.041Z,7.3258
2023-03-29T02:16:50.082Z,7.0694
2023-03-29T02:17:51.428Z,6.9288
2023-03-29T02:18:51.702Z,7.0925
2023-03-29T02:19:53.069Z,7.2283
2023-03-29T02:20:53.159Z,7.0944
2023-03-29T02:21:53.144Z,6.9385
2023-03-29T02:22:54.438Z,6.8028
2023-03-29T02:28:59.466Z,7.2798
2023-03-29T02:29:59.500Z,7.0758
2023-03-29T02:31:01.045Z,7.2146
2023-03-29T02:32:01.704Z,7.1894
2023-03-29T02:33:01.777Z,7.3332
2023-03-29T02:34:01.870Z,7.2635
2023-03-29T02:35:01.908Z,7.3555
2023-03-29T02:36:02.023Z,7.3477
2023-03-29T02:37:02.130Z,7.3011
2023-03-29T02:38:03.530Z,7.1911
2023-03-29T02:39:03.684Z,7.1911
2023-03-29T02:40:04.986Z,7.2832
2023-03-29T02:41:06.493Z,7.3469
2023-03-29T02:42:07.785Z,7.4942
2023-03-29T02:44:09.035Z,7.1884
2023-03-29T02:45:10.376Z,6.9590
2023-03-29T02:46:10.472Z,6.7556
2023-03-29T02:47:10.558Z,6.8787
2023-03-29T02:48:10.669Z,7.0481
2023-03-29T02:49:12.038Z,7.0210
2023-03-29T02:50:13.702Z,6.9118
2023-03-29T02:51:15.916Z,7.1236
2023-03-29T02:52:15.922Z,7.0276
2023-03-29T02:53:15.955Z,7.2082
2023-03-29T02:54:17.338Z,7.3882
2023-03-29T02:55:17.423Z,7.5884
2023-03-29T02:56:18.638Z,7.1551
2023-03-29T02:57:20.221Z,6.8948
2023-03-29T02:58:20.236Z,6.8942
2023-03-29T02:59:21.580Z,6.8996
2023-03-29T03:00:21.672Z,6.8182
2023-03-29T03:01:23.092Z,6.9867
2023-03-29T03:02:23.335Z,6.7219
2023-03-29T03:03:23.954Z,6.7137
2023-03-29T03:04:24.308Z,6.9739
2023-03-29T03:05:25.614Z,7.1860
2023-03-29T03:06:25.752Z,7.1097
2023-03-29T03:07:27.024Z,7.2995
2023-03-29T03:09:29.787Z,7.4237
2023-03-29T03:11:31.124Z,7.1764
2023-03-29T03:12:31.477Z,7.2182
2023-03-29T03:13:32.753Z,7.4002
2023-03-29T03:14:33.101Z,7.2745
2023-03-29T03:15:34.401Z,7.2592
2023-03-29T03:16:34.865Z,7.3082
2023-03-29T03:17:34.856Z,7.0403
2023-03-29T03:18:36.149Z,7.0566
2023-03-29T03:19:36.286Z,7.1983
2023-03-29T03:20:37.553Z,7.0689
2023-03-29T03:21:38.538Z,7.2551
2023-03-29T03:22:39.867Z,7.0393
2023-03-29T03:23:39.981Z,7.0499
2023-03-29T03:27:42.479Z,7.0631
2023-03-29T03:28:42.539Z,7.0656
2023-03-29T03:29:43.922Z,7.2019
2023-03-29T03:30:44.086Z,7.3346
2023-03-29T03:31:44.191Z,8.0879
2023-03-29T03:32:44.304Z,7.9751
2023-03-29T03:33:45.638Z,7.5511
2023-03-29T03:34:47.182Z,7.5451
2023-03-29T03:35:48.512Z,7.4929
2023-03-29T03:36:48.633Z,7.5327
2023-03-29T03:37:49.942Z,7.2463
2023-03-29T03:38:51.442Z,7.0689
2023-03-29T03:39:52.731Z,7.2888
2023-03-29T03:41:55.400Z,7.4749
2023-03-29T03:42:55.759Z,7.2758
2023-03-29T03:43:56.277Z,7.1406
2023-03-29T03:44:56.324Z,7.1434
2023-03-29T03:45:56.586Z,7.2742
2023-03-29T03:46:57.090Z,7.2008
2023-03-29T03:47:57.200Z,7.2180
2023-03-29T03:48:57.383Z,6.8558
2023-03-29T03:49:57.417Z,6.7922
2023-03-29T03:50:57.441Z,6.6910
2023-03-29T03:51:58.788Z,6.7405
2023-03-29T03:52:58.928Z,6.6905
2023-03-29T03:54:00.250Z,6.8470
2023-03-29T03:55:01.789Z,6.5305
2023-03-29T03:56:03.148Z,6.5407
2023-03-29T03:57:04.825Z,6.7311
2023-03-29T03:58:06.109Z,6.7694
2023-03-29T03:59:06.341Z,6.6712
2023-03-29T04:00:07.692Z,6.6336
2023-03-29T04:01:07.680Z,7.1703
2023-03-29T04:02:07.824Z,7.3433
2023-03-29T04:03:08.093Z,7.3411
2023-03-29T04:04:09.167Z,7.2298
2023-03-29T04:05:09.459Z,7.0022
2023-03-29T04:06:09.495Z,6.8241
2023-03-29T04:07:10.744Z,7.2468
2023-03-29T04:08:12.158Z,7.4220
2023-03-29T04:09:13.480Z,7.0972
2023-03-29T04:10:13.640Z,6.9568
2023-03-29T04:11:14.909Z,6.8423
2023-03-29T04:12:15.031Z,6.8745
2023-03-29T04:13:16.337Z,7.5313
2023-03-29T04:14:17.840Z,7.6047
2023-03-29T04:15:17.855Z,7.4052
2023-03-29T04:16:18.067Z,7.3364
2023-03-29T04:17:18.189Z,7.2065
2023-03-29T04:18:18.770Z,7.5924
2023-03-29T04:19:20.085Z,7.3598
2023-03-29T04:20:20.389Z,7.3887
2023-03-29T04:21:21.659Z,7.4129
2023-03-29T04:22:21.915Z,7.3128
2023-03-29T04:34:35.111Z,7.5513
2023-03-29T04:35:35.523Z,7.7190
2023-03-29T04:36:36.744Z,7.5760
2023-03-29T04:37:38.372Z,7.4183
2023-03-29T04:38:38.367Z,7.2998
2023-03-29T04:39:38.593Z,7.3259
2023-03-29T04:40:38.681Z,7.5526
2023-03-29T04:41:40.040Z,7.3701
2023-03-29T04:42:40.082Z,7.3620
2023-03-29T04:43:41.452Z,7.5777
2023-03-29T04:44:42.981Z,7.6145
2023-03-29T04:45:43.017Z,7.5050
2023-03-29T04:46:43.247Z,7.7380
2023-03-29T04:47:43.281Z,7.5401
2023-03-29T04:48:43.308Z,7.4114
2023-03-29T04:49:43.433Z,7.2726
2023-03-29T04:50:44.674Z,7.3882
2023-03-29T04:51:44.998Z,7.6724
2023-03-29T04:52:46.546Z,7.9979
2023-03-29T04:53:46.669Z,8.0837
2023-03-29T04:54:47.978Z,8.1238
2023-03-29T04:55:48.089Z,8.3567
2023-03-29T04:56:49.431Z,8.4379
2023-03-29T04:57:49.512Z,8.4813
2023-03-29T04:58:50.772Z,8.3716
2023-03-29T04:59:52.113Z,8.3659
2023-03-29T05:00:52.280Z,8.5026
2023-03-29T05:01:52.348Z,8.4010
2023-03-29T05:02:52.650Z,8.3336
2023-03-29T05:03:52.761Z,8.3102
2023-03-29T05:04:53.157Z,8.3541
2023-03-29T05:05:53.240Z,8.4025
2023-03-29T05:06:53.422Z,8.4604
2023-03-29T05:07:54.833Z,8.4479
2023-03-29T05:08:55.226Z,8.3621
2023-03-29T05:09:55.460Z,8.4645
2023-03-29T05:10:55.773Z,8.6133
2023-03-29T05:11:55.983Z,8.6903
2023-03-29T05:12:56.097Z,8.6643
2023-03-29T05:13:56.218Z,8.6791
2023-03-29T05:14:56.463Z,8.5698
2023-03-29T05:15:57.360Z,8.3740
2023-03-29T05:16:57.594Z,8.1354
2023-03-29T05:17:58.186Z,8.3582
2023-03-29T05:18:58.585Z,8.6383
2023-03-29T05:19:59.171Z,8.5877
2023-03-29T05:20:59.878Z,8.5111
2023-03-29T05:22:00.594Z,8.5591
2023-03-29T05:23:00.642Z,8.5693
2023-03-29T05:24:01.941Z,8.4330
2023-03-29T05:25:02.110Z,8.4522
2023-03-29T05:26:03.451Z,8.4164
2023-03-29T05:27:03.610Z,8.3441
2023-03-29T05:28:03.679Z,8.2839
2023-03-29T05:29:03.640Z,8.2954
2023-03-29T05:30:03.777Z,8.4101
2023-03-29T05:31:04.273Z,8.3846
2023-03-29T05:32:04.853Z,8.4909
2023-03-29T05:33:04.885Z,8.5447
2023-03-29T05:34:06.363Z,8.4959
2023-03-29T05:35:06.472Z,8.6212
2023-03-29T05:36:06.823Z,8.6415
2023-03-29T05:37:07.086Z,8.5597
2023-03-29T05:38:07.248Z,8.0872
2023-03-29T05:39:07.323Z,8.1054
2023-03-29T05:40:08.127Z,8.0855
2023-03-29T05:41:09.284Z,8.3726
2023-03-29T05:42:09.579Z,8.4478
2023-03-29T05:43:09.458Z,8.4248
2023-03-29T05:44:09.624Z,8.4652
2023-03-29T05:46:10.862Z,8.5102
2023-03-29T05:47:11.214Z,8.2984
2023-03-29T05:48:11.290Z,8.2787
2023-03-29T05:49:11.546Z,8.3226
2023-03-29T05:50:11.678Z,8.2406
2023-03-29T05:51:12.552Z,8.3296
2023-03-29T05:52:12.717Z,8.3180
2023-03-29T05:53:12.874Z,8.3233
2023-03-29T05:54:14.248Z,8.2559
2023-03-29T05:55:14.381Z,8.1637
2023-03-29T05:56:14.494Z,8.0818
2023-03-29T05:57:14.706Z,8.1438
2023-03-29T05:58:14.870Z,8.1591
2023-03-29T05:59:15.033Z,8.0805
2023-03-29T06:00:15.058Z,8.1859
2023-03-29T06:01:15.810Z,8.0986
2023-03-29T06:02:15.952Z,8.1349
2023-03-29T06:03:22.553Z,8.1490
2023-03-29T06:04:23.155Z,8.0729
2023-03-29T06:05:23.331Z,8.1726
2023-03-29T06:06:24.783Z,8.2193
2023-03-29T06:07:24.939Z,8.1163
2023-03-29T06:08:25.071Z,8.1398
2023-03-29T06:09:25.355Z,8.1200
2023-03-29T06:16:29.731Z,8.5545
2023-03-29T06:17:30.226Z,8.5381
2023-03-29T06:18:30.814Z,8.4602
2023-03-29T06:19:30.843Z,8.7152
2023-03-29T06:20:30.931Z,8.7788
2023-03-29T06:21:31.127Z,9.0056
2023-03-29T06:22:32.498Z,8.9916
2023-03-29T06:23:32.572Z,9.1077
2023-03-29T06:24:33.023Z,9.1212
2023-03-29T06:25:34.114Z,9.0778
2023-03-29T06:26:34.399Z,9.0382
2023-03-29T06:27:34.497Z,8.9999
2023-03-29T06:28:34.540Z,9.1539
2023-03-29T06:29:34.786Z,9.0398
2023-03-29T06:30:35.747Z,9.0014
2023-03-29T06:31:36.531Z,8.9478
2023-03-29T06:32:36.874Z,9.0565
2023-03-29T06:33:37.047Z,8.8849
2023-03-29T06:34:38.576Z,8.9989
2023-03-29T06:35:37.599Z,9.2639
2023-03-29T06:36:37.692Z,9.0905
2023-03-29T06:37:37.910Z,9.1671
2023-03-29T06:38:37.927Z,9.2392
2023-03-29T06:39:38.173Z,9.2413
2023-03-29T06:40:38.203Z,9.2382
2023-03-29T06:41:38.231Z,9.2736
2023-03-29T06:42:38.379Z,9.3224
2023-03-29T06:43:38.393Z,9.2981
2023-03-29T06:44:38.414Z,9.3604
2023-03-29T06:45:38.668Z,9.4586
2023-03-29T06:46:39.019Z,9.5506
2023-03-29T06:47:39.086Z,9.4373
2023-03-29T06:48:39.362Z,9.4845
2023-03-29T06:49:39.387Z,9.4148
2023-03-29T06:50:39.493Z,9.4516
2023-03-29T06:51:39.532Z,9.5245
2023-03-29T06:52:39.731Z,9.5384
2023-03-29T06:53:41.104Z,9.4335
2023-03-29T06:54:41.260Z,9.2935
2023-03-29T06:55:41.661Z,9.4835
2023-03-29T06:56:43.121Z,9.4568
2023-03-29T06:57:43.635Z,9.4692
2023-03-29T06:58:43.681Z,9.5245
2023-03-29T06:59:43.955Z,9.6104
2023-03-29T07:00:44.403Z,9.6396
2023-03-29T07:01:44.854Z,9.6784
2023-03-29T07:02:44.906Z,9.5923
2023-03-29T07:03:46.732Z,9.6093
2023-03-29T07:04:47.149Z,9.6846
2023-03-29T07:05:47.428Z,9.7116
2023-03-29T07:06:47.476Z,9.6745
2023-03-29T07:07:47.764Z,9.6202
2023-03-29T07:08:47.956Z,9.5458
2023-03-29T07:09:48.006Z,9.5852
2023-03-29T07:10:48.121Z,9.0305
2023-03-29T07:11:48.332Z,8.6503
2023-03-29T07:12:48.516Z,8.4052
2023-03-29T07:13:49.043Z,8.4827
2023-03-29T07:14:49.124Z,8.4270
2023-03-29T07:15:49.242Z,8.1890
2023-03-29T07:16:49.326Z,7.8565
2023-03-29T07:17:49.548Z,7.8969
2023-03-29T07:18:49.565Z,7.7698
2023-03-29T07:19:49.636Z,7.6491
2023-03-29T07:20:49.815Z,7.7043
2023-03-29T07:21:49.852Z,7.8377
2023-03-29T07:22:49.862Z,7.7974
2023-03-29T07:23:50.079Z,8.0704
2023-03-29T07:24:50.085Z,8.2108
2023-03-29T07:25:50.114Z,8.3035
2023-03-29T07:27:03.261Z,8.4136
2023-03-29T07:27:50.684Z,8.3376
2023-03-29T07:28:50.730Z,8.1747
2023-03-29T07:29:50.877Z,8.2784
2023-03-29T07:30:51.569Z,8.3584
2023-03-29T07:31:51.778Z,8.1865
2023-03-29T07:32:52.234Z,8.2014
2023-03-29T07:33:53.332Z,8.4992
2023-03-29T07:34:53.446Z,8.2468
2023-03-29T07:35:53.518Z,8.3968
2023-03-29T07:36:53.781Z,8.4499
2023-03-29T07:37:53.781Z,8.3265
2023-03-29T07:38:56.301Z,8.4047
2023-03-29T07:39:55.289Z,8.4685
2023-03-29T07:40:55.504Z,8.4473
2023-03-29T07:41:55.532Z,8.4454
2023-03-29T07:42:55.561Z,8.3810
2023-03-29T07:43:55.718Z,9.0805
2023-03-29T07:44:55.734Z,8.9076
2023-03-29T07:45:55.989Z,8.6533
2023-03-29T07:46:56.170Z,8.7196
2023-03-29T07:47:56.478Z,8.6959
2023-03-29T07:48:56.658Z,8.9246
2023-03-29T07:49:57.000Z,9.3825
2023-03-29T07:50:57.082Z,8.9817
2023-03-29T07:51:57.848Z,8.9993
2023-03-29T07:52:58.126Z,8.7875
2023-03-29T07:53:58.255Z,8.7485
2023-03-29T07:54:58.495Z,8.6997
2023-03-29T07:55:58.590Z,8.8687
2023-03-29T07:56:58.826Z,9.1171
2023-03-29T07:57:59.167Z,9.0639
2023-03-29T07:58:59.321Z,9.2182
2023-03-29T07:59:59.548Z,9.2678
2023-03-29T08:00:59.772Z,9.4607
2023-03-29T08:02:00.918Z,9.4490
2023-03-29T08:03:01.040Z,9.2267
2023-03-29T08:04:01.414Z,9.0195
2023-03-29T08:05:01.983Z,9.0768
2023-03-29T08:06:02.585Z,9.1185
2023-03-29T08:07:02.730Z,9.0752
2023-03-29T08:08:02.830Z,9.0254
2023-03-29T08:09:03.122Z,9.1108
2023-03-29T08:10:03.314Z,9.2662
2023-03-29T08:11:03.687Z,9.2979
2023-03-29T08:12:04.020Z,9.4235
2023-03-29T08:13:04.089Z,9.6000
2023-03-29T08:14:04.248Z,9.2644
2023-03-29T08:15:04.432Z,8.9154
2023-03-29T08:16:04.842Z,8.9165
2023-03-29T08:17:05.130Z,8.9062
2023-03-29T08:18:05.904Z,9.0342
2023-03-29T08:19:06.711Z,9.0703
2023-03-29T08:20:07.307Z,8.8340
2023-03-29T08:21:07.901Z,8.8213
2023-03-29T08:22:07.924Z,8.8103
2023-03-29T08:23:08.234Z,8.9768
2023-03-29T08:24:08.507Z,9.1740
2023-03-29T08:25:09.779Z,9.2886
2023-03-29T08:26:09.924Z,9.0699
2023-03-29T08:27:10.251Z,8.8883
2023-03-29T08:28:10.387Z,8.9106
2023-03-29T08:29:10.485Z,8.8785
2023-03-29T08:30:10.742Z,8.8890
2023-03-29T08:31:11.417Z,9.0595
2023-03-29T08:32:11.654Z,9.1677
2023-03-29T08:33:12.058Z,9.2945
2023-03-29T08:34:12.501Z,9.3331
2023-03-29T08:35:12.715Z,9.5333
2023-03-29T08:36:13.044Z,9.3451
2023-03-29T08:37:13.140Z,9.3994
2023-03-29T08:38:13.333Z,9.5566
2023-03-29T08:39:13.646Z,9.5230
2023-03-29T08:40:13.712Z,9.5408
2023-03-29T08:41:14.553Z,9.4471
2023-03-29T08:42:14.585Z,9.5897
2023-03-29T08:43:14.662Z,9.7732
2023-03-29T08:44:14.938Z,9.9653
2023-03-29T08:45:15.006Z,10.1340
2023-03-29T08:46:15.317Z,10.1007
2023-03-29T08:47:16.202Z,10.1513
2023-03-29T08:48:16.663Z,10.1890
2023-03-29T08:49:16.830Z,9.9596
2023-03-29T08:50:16.952Z,10.1469
2023-03-29T08:51:18.016Z,10.2331
2023-03-29T08:52:18.174Z,10.0497
2023-03-29T08:53:19.409Z,9.9052
2023-03-29T08:54:19.569Z,10.2827
2023-03-29T08:55:19.904Z,10.4330
2023-03-29T08:56:20.051Z,10.4276
2023-03-29T08:57:20.710Z,10.3323
2023-03-29T08:58:20.860Z,10.6132
2023-03-29T08:59:21.318Z,10.5814
2023-03-29T09:00:21.406Z,10.7884
2023-03-29T09:01:21.521Z,10.8520
2023-03-29T09:02:21.979Z,10.7913
2023-03-29T09:03:22.492Z,10.7972
2023-03-29T09:04:22.781Z,11.0111
2023-03-29T09:05:22.947Z,11.0865
2023-03-29T09:06:23.212Z,11.0154
2023-03-29T09:07:26.463Z,11.1593
2023-03-29T09:08:24.041Z,11.0518
2023-03-29T09:09:25.004Z,11.2783
2023-03-29T09:10:25.210Z,11.0347
2023-03-29T09:11:25.512Z,11.0817
2023-03-29T09:12:25.612Z,11.1368
2023-03-29T09:13:25.935Z,11.0293
2023-03-29T09:14:26.091Z,11.0494
2023-03-29T09:15:26.395Z,11.2568
2023-03-29T09:16:26.486Z,10.9693
2023-03-29T09:17:27.128Z,10.8348
2023-03-29T09:18:27.464Z,10.7202
2023-03-29T09:19:27.659Z,10.8135
2023-03-29T09:20:28.010Z,10.4344
2023-03-29T09:21:28.217Z,10.2121
2023-03-29T09:22:28.297Z,10.4219
2023-03-29T09:23:28.542Z,10.5790
2023-03-29T09:24:28.881Z,10.6644
2023-03-29T09:25:29.094Z,10.4885
2023-03-29T09:26:29.490Z,10.3517
2023-03-29T09:27:29.750Z,10.6309
2023-03-29T09:28:29.907Z,10.9005
2023-03-29T09:29:31.238Z,10.7418
2023-03-29T09:30:31.372Z,10.7803
2023-03-29T09:31:31.817Z,10.7986
2023-03-29T09:32:31.961Z,10.8466
2023-03-29T09:33:32.216Z,10.9054
2023-03-29T09:34:32.324Z,10.4749
2023-03-29T09:35:32.463Z,10.4071
2023-03-29T09:36:32.758Z,10.2677
2023-03-29T09:37:32.869Z,10.2985
2023-03-29T09:38:33.221Z,10.2392
2023-03-29T09:39:33.237Z,10.3536
2023-03-29T09:40:33.359Z,10.3744
2023-03-29T09:41:33.603Z,10.5173
2023-03-29T09:42:33.717Z,10.5531
2023-03-29T09:43:33.768Z,10.5447
2023-03-29T09:44:33.976Z,10.5428
2023-03-29T09:45:34.121Z,10.5496
2023-03-29T09:46:34.520Z,10.5311
2023-03-29T09:47:34.658Z,10.5506
2023-03-29T09:48:35.251Z,10.9367
2023-03-29T09:49:35.356Z,10.9193
2023-03-29T09:50:35.918Z,10.8930
2023-03-29T09:51:36.007Z,10.9442
2023-03-29T09:52:36.315Z,10.9112
2023-03-29T09:53:36.485Z,10.9976
2023-03-29T09:54:36.809Z,10.8451
2023-03-29T09:55:37.073Z,11.1016
2023-03-29T09:56:37.338Z,10.9879
2023-03-29T09:57:37.525Z,10.8493
2023-03-29T09:58:37.894Z,10.8322
2023-03-29T09:59:38.017Z,10.9808
2023-03-29T10:00:38.141Z,11.3870
2023-03-29T10:01:38.794Z,11.5213
2023-03-29T10:02:39.302Z,11.6954
2023-03-29T10:03:39.529Z,11.4783
2023-03-29T10:04:39.994Z,11.2089
2023-03-29T10:05:40.122Z,11.5266
2023-03-29T10:06:40.214Z,11.5404
2023-03-29T10:07:40.434Z,11.3874
2023-03-29T10:08:41.838Z,11.4662
2023-03-29T10:09:42.152Z,11.9117
2023-03-29T10:10:42.567Z,11.5151
2023-03-29T10:11:42.893Z,11.7407
2023-03-29T10:12:43.265Z,12.2735
2023-03-29T10:13:43.366Z,11.7827
2023-03-29T10:14:43.532Z,12.0331
2023-03-29T10:15:44.550Z,12.4575
2023-03-29T10:16:44.775Z,12.6643
2023-03-29T10:17:45.143Z,11.8501
2023-03-29T10:18:45.370Z,12.0846
2023-03-29T10:19:45.650Z,12.1140
2023-03-29T10:20:45.854Z,12.1021
2023-03-29T10:21:46.156Z,12.5074
2023-03-29T10:22:46.300Z,13.3091
2023-03-29T10:23:46.763Z,12.6228
2023-03-29T10:24:46.862Z,12.7426
2023-03-29T10:25:47.135Z,12.7610
2023-03-29T10:26:47.320Z,12.7042
2023-03-29T10:27:47.827Z,12.5783
2023-03-29T10:28:48.049Z,12.3838
2023-03-29T10:29:48.413Z,12.4917
2023-03-29T10:30:48.690Z,12.7736
2023-03-29T10:31:49.257Z,12.7499
2023-03-29T10:32:49.804Z,12.7475
2023-03-29T10:33:50.038Z,12.7155
2023-03-29T10:34:50.515Z,13.0714
2023-03-29T10:35:50.738Z,13.1852
2023-03-29T10:36:51.103Z,13.2714
2023-03-29T10:37:51.581Z,13.6112
2023-03-29T10:38:52.004Z,15.0158
2023-03-29T10:39:52.292Z,14.1932
2023-03-29T10:40:52.723Z,13.9164
2023-03-29T10:41:53.114Z,14.7880
2023-03-29T10:42:53.226Z,15.5834
2023-03-29T10:43:54.376Z,14.8794
2023-03-29T10:44:54.835Z,13.1568
2023-03-29T10:45:55.522Z,12.9932
2023-03-29T10:46:56.782Z,12.9111
2023-03-29T10:47:57.117Z,13.6168
2023-03-29T10:48:57.520Z,13.2584
2023-03-29T10:49:58.652Z,12.9400
2023-03-29T10:50:59.032Z,14.2640
2023-03-29T10:51:59.219Z,16.0372
2023-03-29T10:52:59.806Z,14.9454
2023-03-29T10:54:00.048Z,13.5767
2023-03-29T10:55:00.563Z,13.2690
2023-03-29T10:56:00.757Z,12.7719
2023-03-29T10:57:01.139Z,12.5311
2023-03-29T10:58:01.588Z,12.6298
2023-03-29T10:59:01.811Z,13.1128
2023-03-29T11:00:02.265Z,12.7693
2023-03-29T11:01:02.778Z,12.6918
2023-03-29T11:02:03.539Z,12.6314
2023-03-29T11:03:04.236Z,12.5650
2023-03-29T11:04:05.488Z,12.6514
2023-03-29T11:05:06.067Z,12.4785
2023-03-29T11:06:06.441Z,12.5453
2023-03-29T11:07:06.858Z,12.6202
2023-03-29T11:08:07.086Z,12.7429
2023-03-29T11:09:07.440Z,12.6928
2023-03-29T11:10:07.870Z,12.7471
2023-03-29T11:11:08.348Z,13.1090
2023-03-29T11:12:15.583Z,13.5596
2023-03-29T11:13:09.668Z,13.9779
2023-03-29T11:14:10.476Z,14.0352
2023-03-29T11:15:10.662Z,14.1990
2023-03-29T11:16:11.089Z,14.5197
2023-03-29T11:17:11.330Z,14.0195
2023-03-29T11:18:11.722Z,14.0637
2023-03-29T11:19:12.106Z,14.2401
2023-03-29T11:20:12.530Z,14.1840
2023-03-29T11:21:12.928Z,14.4170
2023-03-29T11:22:13.101Z,14.8393
2023-03-29T11:23:13.506Z,14.8564
2023-03-29T11:24:13.708Z,14.6462
2023-03-29T11:25:14.124Z,14.7541
2023-03-29T11:26:14.490Z,15.0830
2023-03-29T11:27:14.704Z,14.8817
2023-03-29T11:28:15.133Z,15.0743
2023-03-29T11:29:15.289Z,15.6523
2023-03-29T11:30:15.950Z,16.1914
2023-03-29T11:31:16.793Z,16.1419
2023-03-29T11:32:17.112Z,16.3924
2023-03-29T11:33:18.039Z,16.3647
2023-03-29T11:34:18.301Z,16.3897
2023-03-29T11:35:18.678Z,16.0172
2023-03-29T11:36:19.200Z,16.7446
2023-03-29T11:37:19.416Z,17.4067
2023-03-29T11:38:19.940Z,17.1367
2023-03-29T11:39:20.404Z,16.5122
2023-03-29T11:40:20.691Z,16.4673
2023-03-29T11:41:21.109Z,17.7007
2023-03-29T11:42:21.317Z,17.1234
2023-03-29T11:43:21.629Z,17.4318
2023-03-29T11:44:22.008Z,16.9888
2023-03-29T11:45:22.255Z,17.7518
2023-03-29T11:46:22.847Z,18.3742
2023-03-29T11:47:23.511Z,17.2150
2023-03-29T11:48:24.112Z,16.1311
2023-03-29T11:49:24.546Z,16.3408
2023-03-29T11:50:25.975Z,16.2155
2023-03-29T11:51:26.154Z,17.4120
2023-03-29T11:52:26.509Z,17.8166
2023-03-29T11:53:26.769Z,17.5095
2023-03-29T11:54:27.164Z,16.9108
2023-03-29T11:55:27.979Z,17.4990
2023-03-29T11:56:28.253Z,16.3380
2023-03-29T11:57:28.809Z,15.9745
2023-03-29T11:58:29.373Z,15.8129
2023-03-29T11:59:29.667Z,15.5634
2023-03-29T12:00:30.039Z,16.2833
2023-03-29T12:01:30.484Z,15.9222
2023-03-29T12:02:31.249Z,15.5978
2023-03-29T12:03:31.911Z,15.3206
2023-03-29T12:04:33.120Z,15.3514
2023-03-29T12:05:33.531Z,15.6931
2023-03-29T12:06:33.786Z,16.2414
2023-03-29T12:07:34.205Z,16.6215
2023-03-29T12:08:34.539Z,16.3214
2023-03-29T12:09:34.731Z,15.5496
2023-03-29T12:10:35.177Z,15.4621
2023-03-29T12:11:35.352Z,15.3937
2023-03-29T12:12:36.280Z,15.2178
2023-03-29T12:13:36.669Z,15.4142
2023-03-29T12:14:37.348Z,15.0387
2023-03-29T12:15:37.791Z,14.8218
2023-03-29T12:16:38.104Z,14.9006
2023-03-29T12:17:38.739Z,14.9845
2023-03-29T12:18:39.691Z,14.6977
2023-03-29T12:19:42.658Z,14.5555
2023-03-29T12:20:41.183Z,14.6357
2023-03-29T12:21:42.065Z,14.6134
2023-03-29T12:22:42.531Z,14.7164
2023-03-29T12:23:42.711Z,14.4952
2023-03-29T12:24:43.064Z,14.4482
2023-03-29T12:25:43.669Z,14.6305
2023-03-29T12:26:43.927Z,14.5200
2023-03-29T12:27:44.286Z,14.4317
2023-03-29T12:28:44.651Z,14.0874
2023-03-29T12:29:44.954Z,14.1595
2023-03-29T12:30:45.358Z,14.1705
2023-03-29T12:31:45.868Z,14.4451
2023-03-29T12:32:46.473Z,14.6865
2023-03-29T12:33:46.883Z,14.8526
2023-03-29T12:34:47.226Z,14.8463
2023-03-29T12:35:47.535Z,14.7393
2023-03-29T12:36:47.902Z,14.3787
2023-03-29T12:37:48.140Z,14.4326
2023-03-29T12:38:48.486Z,14.2965
2023-03-29T12:39:48.898Z,14.3030
2023-03-29T12:40:49.260Z,14.0451
2023-03-29T12:41:49.584Z,14.5227
2023-03-29T12:42:49.858Z,15.2515
2023-03-29T12:43:50.317Z,15.5251
2023-03-29T12:44:50.866Z,15.3649
2023-03-29T12:45:51.187Z,15.2429
2023-03-29T12:46:52.293Z,15.3819
2023-03-29T12:47:52.763Z,14.8716
2023-03-29T12:48:53.207Z,15.9304
2023-03-29T12:49:53.825Z,16.4207
2023-03-29T12:50:54.051Z,17.2093
2023-03-29T12:51:54.454Z,16.5289
2023-03-29T12:52:54.923Z,15.6486
2023-03-29T12:53:55.115Z,16.0877
2023-03-29T12:54:55.465Z,15.8089
2023-03-29T12:55:55.921Z,15.4135
2023-03-29T12:56:56.685Z,14.7374
2023-03-29T12:57:57.024Z,14.6022
2023-03-29T12:58:57.241Z,14.0568
2023-03-29T12:59:57.662Z,14.6286
2023-03-29T13:00:58.210Z,14.8452
2023-03-29T13:01:58.917Z,13.9949
2023-03-29T13:02:59.540Z,14.5522
2023-03-29T13:04:00.268Z,14.1256
2023-03-29T13:05:00.815Z,14.0799
2023-03-29T13:06:01.847Z,14.0363
2023-03-29T13:07:01.793Z,14.4472
2023-03-29T13:08:02.223Z,14.0600
2023-03-29T13:09:02.768Z,14.7727
2023-03-29T13:10:03.330Z,14.7944
2023-03-29T13:11:03.976Z,15.1569
2023-03-29T13:12:04.454Z,15.4643
2023-03-29T13:13:04.962Z,15.3760
2023-03-29T13:14:05.302Z,14.8040
2023-03-29T13:15:05.745Z,16.0606
2023-03-29T13:16:06.497Z,16.7894
2023-03-29T13:17:17.748Z,16.5047